createdAt,value
2022-09-28T00:01:25.476Z,17.00
2022-09-28T00:03:54.671Z,16.98
2022-09-28T00:06:24.556Z,17.04
2022-09-28T00:08:52.442Z,17.03
2022-09-28T00:11:20.969Z,16.98
2022-09-28T00:13:52.398Z,17.01
2022-09-28T00:16:21.418Z,17.03
2022-09-28T00:18:51.357Z,17.15
2022-09-28T00:21:20.020Z,17.12
2022-09-28T00:24:06.331Z,17.14
2022-09-28T00:26:34.013Z,17.11
2022-09-28T00:29:02.068Z,17.06
2022-09-28T00:31:33.017Z,17.10
2022-09-28T00:34:01.029Z,17.05
2022-09-28T00:36:29.167Z,17.19
2022-09-28T00:38:56.605Z,17.18
2022-09-28T00:41:27.703Z,17.16
2022-09-28T00:44:15.510Z,17.20
2022-09-28T00:46:43.266Z,17.22
2022-09-28T00:49:11.515Z,17.12
2022-09-28T00:51:39.004Z,17.13
2022-09-28T00:54:09.624Z,17.17
2022-09-28T00:56:38.468Z,17.16
2022-09-28T00:59:07.307Z,17.18
2022-09-28T01:01:35.200Z,17.15
2022-09-28T01:04:03.338Z,17.13
2022-09-28T01:06:33.409Z,17.15
2022-09-28T01:09:03.162Z,17.13
2022-09-28T01:11:34.317Z,17.21
2022-09-28T01:14:03.866Z,17.21
2022-09-28T01:17:01.298Z,17.09
2022-09-28T01:19:58.403Z,17.14
2022-09-28T01:22:35.003Z,17.10
2022-09-28T01:25:12.547Z,17.09
2022-09-28T01:27:41.443Z,17.11
2022-09-28T01:30:09.517Z,17.10
2022-09-28T01:32:45.892Z,17.13
2022-09-28T01:35:15.294Z,17.12
2022-09-28T01:38:01.850Z,17.12
2022-09-28T01:40:29.586Z,17.13
2022-09-28T01:43:07.033Z,17.10
2022-09-28T01:45:45.889Z,17.12
2022-09-28T01:48:16.937Z,17.16
2022-09-28T01:50:44.303Z,17.13
2022-09-28T01:53:12.892Z,17.15
2022-09-28T01:55:42.420Z,17.17
2022-09-28T01:58:12.184Z,17.19
2022-09-28T02:00:41.866Z,17.21
2022-09-28T02:03:11.231Z,17.14
2022-09-28T02:05:49.510Z,17.21
2022-09-28T02:08:31.447Z,17.22
2022-09-28T02:11:01.724Z,17.23
2022-09-28T02:13:36.919Z,17.14
2022-09-28T02:16:05.921Z,17.23
2022-09-28T02:18:34.454Z,17.22
2022-09-28T02:21:07.146Z,17.30
2022-09-28T02:23:35.555Z,17.27
2022-09-28T02:26:04.107Z,17.21
2022-09-28T02:28:32.586Z,17.13
2022-09-28T02:31:00.465Z,17.18
2022-09-28T02:33:32.291Z,17.17
2022-09-28T02:36:00.101Z,17.22
2022-09-28T02:38:28.892Z,17.29
2022-09-28T02:41:17.277Z,17.30
2022-09-28T02:43:44.854Z,17.28
2022-09-28T02:46:18.740Z,17.24
2022-09-28T02:49:10.694Z,17.22
2022-09-28T02:51:42.396Z,17.21
2022-09-28T02:54:24.021Z,17.18
2022-09-28T02:57:12.392Z,17.18
2022-09-28T02:59:56.972Z,17.25
2022-09-28T03:02:35.939Z,17.24
2022-09-28T03:05:06.484Z,17.16
2022-09-28T03:07:35.805Z,17.22
2022-09-28T03:10:05.961Z,17.17
2022-09-28T03:12:33.443Z,17.19
2022-09-28T03:15:07.961Z,17.11
2022-09-28T03:17:35.587Z,17.18
2022-09-28T03:20:03.904Z,17.22
2022-09-28T03:22:31.561Z,17.15
2022-09-28T03:24:59.097Z,17.21
2022-09-28T03:27:26.951Z,17.24
2022-09-28T03:29:54.424Z,17.30
2022-09-28T03:32:21.799Z,17.27
2022-09-28T03:34:49.272Z,17.25
2022-09-28T03:37:16.809Z,17.25
2022-09-28T03:39:44.408Z,17.28
2022-09-28T03:42:12.357Z,17.26
2022-09-28T03:44:44.826Z,17.09
2022-09-28T03:47:12.605Z,17.13
2022-09-28T03:49:40.094Z,16.92
2022-09-28T03:52:10.047Z,16.84
2022-09-28T03:54:38.239Z,16.79
2022-09-28T03:57:09.093Z,16.73
2022-09-28T03:59:37.764Z,16.81
2022-09-28T04:02:08.303Z,16.70
2022-09-28T04:04:36.250Z,16.93
2022-09-28T04:07:03.724Z,16.72
2022-09-28T04:09:32.080Z,16.68
2022-09-28T04:12:04.114Z,16.69
2022-09-28T04:14:33.694Z,16.63
2022-09-28T04:17:01.930Z,16.53
2022-09-28T04:19:31.579Z,16.60
2022-09-28T04:21:59.114Z,16.68
2022-09-28T04:24:26.705Z,16.65
2022-09-28T04:27:14.213Z,16.66
2022-09-28T04:29:44.254Z,16.75
2022-09-28T04:32:14.248Z,16.54
2022-09-28T04:34:44.100Z,16.39
2022-09-28T04:37:12.434Z,16.40
2022-09-28T04:39:44.988Z,16.38
2022-09-28T04:42:17.052Z,16.50
2022-09-28T04:44:44.480Z,16.55
2022-09-28T04:47:12.928Z,16.49
2022-09-28T04:49:49.223Z,16.36
2022-09-28T04:52:20.697Z,16.55
2022-09-28T04:54:50.751Z,16.46
2022-09-28T04:57:18.276Z,16.46
2022-09-28T04:59:45.815Z,16.60
2022-09-28T05:02:15.153Z,16.45
2022-09-28T16:13:17.176Z,16.72
2022-09-28T16:15:45.010Z,16.57
2022-09-28T16:18:33.557Z,16.49
2022-09-28T16:21:21.333Z,16.44
2022-09-28T16:23:52.795Z,16.47
2022-09-28T16:26:35.082Z,16.39
2022-09-28T16:29:06.263Z,16.30
2022-09-28T16:31:34.770Z,16.36
2022-09-28T16:34:20.002Z,16.24
2022-09-28T16:36:49.128Z,16.23
2022-09-28T16:39:16.962Z,16.34
2022-09-28T16:41:55.539Z,16.26
2022-09-28T16:44:24.495Z,16.21
2022-09-28T16:46:53.985Z,16.26
2022-09-28T16:49:21.503Z,16.11
2022-09-28T16:51:49.147Z,16.38
2022-09-28T16:54:39.901Z,16.22
2022-09-28T16:57:07.775Z,16.13
2022-09-28T16:59:38.520Z,16.06
2022-09-28T17:02:42.100Z,16.17
2022-09-28T17:05:07.334Z,16.19
2022-09-28T17:07:35.042Z,15.97
2022-09-28T17:10:02.971Z,15.94
2022-09-28T17:12:30.589Z,15.85
2022-09-28T17:15:00.509Z,15.84
2022-09-28T17:17:30.067Z,15.82
2022-09-28T17:19:57.760Z,15.86
2022-09-28T17:22:26.515Z,15.86
2022-09-28T17:24:53.946Z,16.02
2022-09-28T17:27:21.922Z,15.95
2022-09-28T17:29:49.321Z,15.74
2022-09-28T17:32:19.852Z,15.73
2022-09-28T17:34:55.936Z,15.90
2022-09-28T17:37:28.767Z,15.80
2022-09-28T17:39:56.766Z,16.00
2022-09-28T17:42:24.138Z,15.87
2022-09-28T17:44:52.082Z,15.75
2022-09-28T17:47:20.219Z,15.70
2022-09-28T17:49:47.804Z,15.65
2022-09-28T17:52:15.588Z,15.77
2022-09-28T17:54:43.246Z,15.69
2022-09-28T17:57:10.974Z,15.77
2022-09-28T17:59:40.622Z,15.52
2022-09-28T18:02:11.504Z,15.62
2022-09-28T18:04:51.856Z,15.69
2022-09-28T18:07:20.015Z,15.57
2022-09-28T18:09:47.722Z,15.52
2022-09-28T18:12:16.248Z,15.49
2022-09-28T18:14:43.780Z,15.49
2022-09-28T18:17:11.320Z,15.52
2022-09-28T18:19:39.117Z,15.67
2022-09-28T18:22:06.587Z,15.75
2022-09-28T18:24:34.371Z,15.73
2022-09-28T18:27:02.353Z,15.51
2022-09-28T18:29:33.261Z,15.51
2022-09-28T18:32:03.705Z,15.43
2022-09-28T18:34:31.473Z,15.45
2022-09-28T18:36:58.847Z,15.50
2022-09-28T18:39:26.873Z,15.47
2022-09-28T18:41:54.639Z,15.38
2022-09-28T18:44:22.549Z,15.41
2022-09-28T18:46:51.691Z,15.62
2022-09-28T18:49:19.163Z,15.54
2022-09-28T18:51:46.666Z,15.41
2022-09-28T18:54:14.628Z,15.40
2022-09-28T18:56:42.180Z,15.31
2022-09-28T18:59:12.599Z,15.45
2022-09-28T19:01:41.796Z,15.34
2022-09-28T19:04:09.785Z,15.27
2022-09-28T19:06:37.975Z,15.19
2022-09-28T19:09:05.747Z,15.14
2022-09-28T19:11:33.460Z,15.26
2022-09-28T19:14:00.915Z,15.22
2022-09-28T19:16:28.809Z,15.19
2022-09-28T19:18:56.826Z,15.20
2022-09-28T19:21:24.638Z,15.32
2022-09-28T19:23:55.538Z,15.36
2022-09-28T19:26:24.066Z,15.38
2022-09-28T19:28:51.494Z,15.23
2022-09-28T19:31:19.125Z,15.22
2022-09-28T19:33:47.304Z,15.25
2022-09-28T19:36:15.697Z,15.16
2022-09-28T19:38:43.055Z,15.28
2022-09-28T19:41:43.831Z,15.20
2022-09-28T19:44:15.531Z,15.18
2022-09-28T19:46:44.092Z,15.17
2022-09-28T19:49:12.349Z,15.21
2022-09-28T19:51:51.444Z,15.19
2022-09-28T19:54:32.054Z,15.37
2022-09-28T19:57:07.860Z,15.17
2022-09-28T19:59:38.397Z,15.30
2022-09-28T20:02:06.866Z,15.36
2022-09-28T20:04:34.448Z,15.41
2022-09-28T20:07:02.006Z,15.25
2022-09-28T20:09:30.820Z,15.17
2022-09-28T20:11:59.055Z,14.95
2022-09-28T20:14:34.079Z,14.97
2022-09-28T20:17:05.285Z,15.03
2022-09-28T20:19:33.802Z,15.07
2022-09-28T20:22:03.290Z,14.94
2022-09-28T20:24:31.385Z,14.71
2022-09-28T20:26:58.967Z,14.85
2022-09-28T20:29:26.837Z,14.98
2022-09-28T20:31:54.429Z,15.16
2022-09-28T20:34:21.785Z,15.06
2022-09-28T20:36:49.209Z,14.94
2022-09-28T20:39:16.667Z,14.65
2022-09-28T20:41:46.174Z,14.59
2022-09-28T20:44:13.592Z,14.82
2022-09-28T20:46:41.124Z,14.78
2022-09-28T20:49:10.395Z,15.09
2022-09-28T20:51:38.319Z,15.13
2022-09-28T20:54:05.834Z,14.92
2022-09-28T20:56:39.876Z,14.85
2022-09-28T20:59:07.446Z,14.72
2022-09-28T21:01:34.979Z,14.73
2022-09-28T21:04:03.051Z,14.71
2022-09-28T21:06:31.388Z,14.70
2022-09-28T21:08:58.879Z,14.69
2022-09-28T21:11:27.586Z,14.70
2022-09-28T21:13:59.114Z,14.66
2022-09-28T21:16:27.045Z,14.63
2022-09-28T21:18:54.407Z,14.57
2022-09-28T21:21:22.026Z,14.62
2022-09-28T21:23:52.936Z,14.71
2022-09-28T21:26:26.821Z,14.49
2022-09-28T21:28:58.176Z,14.71
2022-09-28T21:31:28.798Z,14.50
2022-09-28T21:33:57.451Z,14.33
2022-09-28T21:36:25.076Z,14.51
2022-09-28T21:38:53.590Z,14.54
2022-09-28T21:41:21.079Z,14.63
2022-09-28T21:43:48.451Z,14.51
2022-09-28T21:46:15.974Z,14.34
2022-09-28T21:48:43.425Z,14.47
2022-09-28T21:51:11.605Z,14.48
2022-09-28T21:53:39.243Z,14.52
2022-09-28T21:56:09.849Z,14.26
2022-09-28T21:58:40.684Z,14.27
2022-09-28T22:01:09.513Z,14.13
2022-09-28T22:03:36.979Z,14.07
2022-09-28T22:06:04.561Z,14.11
2022-09-28T22:08:33.148Z,14.04
2022-09-28T22:11:00.978Z,14.09
2022-09-28T22:13:31.945Z,14.27
2022-09-28T22:16:01.239Z,14.22
2022-09-28T22:18:31.956Z,14.12
2022-09-28T22:21:00.481Z,14.07
2022-09-28T22:23:28.168Z,14.11
2022-09-28T22:25:59.443Z,13.98
2022-09-28T22:28:27.112Z,14.02
2022-09-28T22:30:54.567Z,13.90
2022-09-28T22:33:22.382Z,13.79
2022-09-28T22:35:51.303Z,13.92
2022-09-28T22:38:19.555Z,14.00
2022-09-28T22:40:50.582Z,14.03
2022-09-28T22:43:18.824Z,14.08
2022-09-28T22:45:46.152Z,13.92
2022-09-28T22:48:13.523Z,14.06
2022-09-28T22:50:47.807Z,14.06
2022-09-28T22:53:15.223Z,14.12
2022-09-28T22:55:43.215Z,14.18
2022-09-28T22:58:10.615Z,14.37
2022-09-28T23:00:38.018Z,14.07
2022-09-28T23:03:05.663Z,14.03
2022-09-28T23:05:33.072Z,14.02
2022-09-28T23:08:00.506Z,13.98
2022-09-28T23:10:28.058Z,14.03
2022-09-28T23:12:55.331Z,13.97
2022-09-28T23:15:22.906Z,14.02
2022-09-28T23:17:53.475Z,13.98
2022-09-28T23:20:21.129Z,14.15
2022-09-28T23:22:48.810Z,14.07
2022-09-28T23:25:17.809Z,14.07
2022-09-28T23:27:46.434Z,14.10
2022-09-28T23:30:14.435Z,14.18
2022-09-28T23:32:41.917Z,14.10
2022-09-28T23:35:09.416Z,14.05
2022-09-28T23:37:36.910Z,14.12
2022-09-28T23:40:05.088Z,13.99
2022-09-28T23:42:32.455Z,14.01
2022-09-28T23:44:59.850Z,13.92
2022-09-28T23:47:27.128Z,14.07
2022-09-28T23:49:54.460Z,13.98
2022-09-28T23:52:21.781Z,14.41
2022-09-28T23:54:49.629Z,14.50
2022-09-28T23:57:17.162Z,14.34
2022-09-28T23:59:44.520Z,14.28
